Time;durP1;ratioP1;P1;durP2;ratioP2;P2;SDS_P1;SDS_P2;PMS_P1;PMS_P2;Temp;Humidity;BMP_temperature;BMP_pressure;BME280_temperature;BME280_humidity;BME280_pressure;Samples;Min_cycle;Max_cycle;Signal;HPM_P1;HPM_P2
2022/12/19 04:00:18;;;;;;;86.88;33.55;;;1.90;99.90;;;;;;6138495;23;20905;31
2022/12/19 04:02:48;;;;;;;86.20;32.45;;;2.00;99.90;;;;;;6131512;23;20028;-86
2022/12/19 04:05:25;;;;;;;88.22;31.70;;;2.00;99.90;;;;;;6158515;23;20005;-85
2022/12/19 04:07:54;;;;;;;95.38;37.20;;;2.00;99.90;;;;;;6131766;23;20014;-89
2022/12/19 04:10:22;;;;;;;86.80;33.30;;;2.00;99.90;;;;;;6132000;23;20010;-85
2022/12/19 04:12:52;;;;;;;92.68;35.78;;;2.10;99.90;;;;;;6157866;23;20109;-81
2022/12/19 04:15:23;;;;;;;88.95;34.95;;;2.10;99.90;;;;;;6157903;23;20009;-82
2022/12/19 04:17:56;;;;;;;92.82;35.78;;;2.10;99.90;;;;;;6133138;23;20078;-83
2022/12/19 04:20:25;;;;;;;96.68;36.45;;;2.10;99.90;;;;;;6107082;23;20019;-86
2022/12/19 04:22:59;;;;;;;100.72;36.58;;;2.20;99.90;;;;;;6161412;23;20009;-83
2022/12/19 04:25:32;;;;;;;79.88;30.70;;;2.10;99.90;;;;;;6133854;23;20040;-86
2022/12/19 04:28:04;;;;;;;96.78;34.10;;;2.20;99.90;;;;;;6134444;23;20017;-83
2022/12/19 04:30:31;;;;;;;89.97;34.50;;;2.20;99.90;;;;;;6133920;23;20085;-84
2022/12/19 04:32:57;;;;;;;93.20;35.10;;;2.20;99.90;;;;;;6109719;23;20347;-85
2022/12/19 04:35:23;;;;;;;94.88;33.88;;;2.30;99.90;;;;;;6133648;23;20010;-87
2022/12/19 04:37:50;;;;;;;84.03;32.63;;;2.30;99.90;;;;;;6133331;23;20044;-83
2022/12/19 04:40:25;;;;;;;89.03;35.05;;;2.30;99.90;;;;;;6133312;23;20035;-85
2022/12/19 04:42:51;;;;;;;87.80;32.70;;;2.30;99.90;;;;;;6084223;23;20044;-85
2022/12/19 04:45:17;;;;;;;88.60;33.35;;;2.30;99.90;;;;;;6134121;23;20020;-82
2022/12/19 04:48:02;;;;;;;89.18;32.80;;;2.40;99.90;;;;;;6110485;23;20103;-86
2022/12/19 04:50:27;;;;;;;81.68;31.92;;;2.40;99.90;;;;;;6159223;23;20052;-84
2022/12/19 04:52:53;;;;;;;93.70;33.92;;;2.40;99.90;;;;;;6133970;23;20014;-79
2022/12/19 04:55:19;;;;;;;64.40;22.65;;;2.40;99.90;;;;;;6133929;23;20006;-80
2022/12/19 04:57:44;;;;;;;94.43;33.85;;;2.40;99.90;;;;;;6160813;23;20138;-82
2022/12/19 05:00:11;;;;;;;101.03;35.58;;;2.40;99.90;;;;;;6160200;23;20010;-82
2022/12/19 05:02:37;;;;;;;96.95;35.78;;;2.40;99.90;;;;;;6133448;23;20049;-86
2022/12/19 05:05:02;;;;;;;92.65;32.53;;;2.40;99.90;;;;;;6159494;23;20377;-82
2022/12/19 05:07:28;;;;;;;95.47;34.70;;;2.40;99.90;;;;;;6108358;23;20017;-81
2022/12/19 05:09:54;;;;;;;88.15;32.85;;;2.50;99.90;;;;;;6159948;23;20018;-83
2022/12/19 05:12:19;;;;;;;86.78;32.45;;;2.50;99.90;;;;;;6159498;23;20016;-80
2022/12/19 05:14:45;;;;;;;100.22;33.90;;;2.50;99.90;;;;;;6158480;23;20339;-85
2022/12/19 05:17:10;;;;;;;88.80;33.05;;;2.50;99.90;;;;;;6159474;23;20024;-83
2022/12/19 05:19:36;;;;;;;100.57;34.90;;;2.50;99.90;;;;;;6159889;23;20053;-84
2022/12/19 05:22:02;;;;;;;99.47;34.78;;;2.50;99.90;;;;;;6159274;23;20016;-80
2022/12/19 05:24:27;;;;;;;86.72;31.30;;;2.50;99.90;;;;;;6133926;23;20017;-83
2022/12/19 05:26:53;;;;;;;100.28;35.95;;;2.50;99.90;;;;;;6160962;23;20009;-84
2022/12/19 05:29:18;;;;;;;98.13;34.42;;;2.50;99.90;;;;;;6134513;23;20375;-84
2022/12/19 05:31:44;;;;;;;96.95;31.73;;;2.50;99.90;;;;;;6133763;23;20021;-87
2022/12/19 05:34:10;;;;;;;86.15;30.58;;;2.50;99.90;;;;;;6160207;23;20446;-84
2022/12/19 05:36:35;;;;;;;92.78;33.58;;;2.60;99.90;;;;;;6134383;23;20014;-86
2022/12/19 05:39:01;;;;;;;98.55;35.47;;;2.60;99.90;;;;;;6134394;23;20057;-84
2022/12/19 05:41:27;;;;;;;80.28;30.75;;;2.60;99.90;;;;;;6159188;23;20032;-82
2022/12/19 05:43:54;;;;;;;77.80;28.98;;;2.60;99.90;;;;;;6133636;23;20064;-86
2022/12/19 05:46:21;;;;;;;73.13;28.52;;;2.70;99.90;;;;;;6159166;23;20009;-83
2022/12/19 05:48:47;;;;;;;92.47;34.53;;;2.70;99.90;;;;;;6109891;23;20014;-85
2022/12/19 05:51:14;;;;;;;83.63;30.73;;;2.70;99.90;;;;;;6133012;23;20010;-86
2022/12/19 05:53:40;;;;;;;83.93;32.55;;;2.70;99.90;;;;;;6159618;23;20009;-86
2022/12/19 05:56:08;;;;;;;87.78;31.70;;;2.70;99.90;;;;;;6160437;23;20363;-82
2022/12/19 05:58:35;;;;;;;72.18;26.35;;;2.70;99.90;;;;;;6133407;23;20014;-83
2022/12/19 06:01:09;;;;;;;75.22;29.65;;;2.70;99.90;;;;;;6158998;23;20006;-82
2022/12/19 06:03:35;;;;;;;76.68;31.02;;;2.80;99.90;;;;;;6133944;23;20307;-80
2022/12/19 06:06:03;;;;;;;82.90;31.65;;;2.80;99.90;;;;;;6132960;23;20013;-83
2022/12/19 06:08:29;;;;;;;67.75;27.80;;;2.80;99.90;;;;;;6132586;23;20074;-81
2022/12/19 06:11:00;;;;;;;82.80;29.50;;;2.80;99.90;;;;;;6158963;23;20018;-81
2022/12/19 06:13:27;;;;;;;80.93;29.40;;;2.80;99.90;;;;;;6133204;23;20014;-84
2022/12/19 06:16:03;;;;;;;78.30;30.42;;;2.80;99.90;;;;;;6132227;23;20017;-81
2022/12/19 06:18:30;;;;;;;68.18;27.92;;;2.90;99.90;;;;;;6158797;23;20036;-82
2022/12/19 06:21:04;;;;;;;81.10;29.83;;;2.90;99.90;;;;;;6158556;23;20013;-84
2022/12/19 06:23:31;;;;;;;83.35;31.27;;;2.90;99.90;;;;;;6132113;23;20014;-85
2022/12/19 06:25:58;;;;;;;81.10;28.63;;;2.90;99.90;;;;;;6132918;23;20010;-85
2022/12/19 06:28:25;;;;;;;79.22;30.35;;;2.90;99.90;;;;;;6159045;23;20014;-86
2022/12/19 06:30:50;;;;;;;85.15;30.90;;;2.90;99.90;;;;;;6158686;23;20077;-83
2022/12/19 06:33:16;;;;;;;75.95;28.58;;;2.90;99.90;;;;;;6108329;23;20343;-84
2022/12/19 06:35:42;;;;;;;77.68;28.80;;;2.90;99.90;;;;;;6132066;23;20006;-85
2022/12/19 06:38:07;;;;;;;72.68;28.10;;;3.00;99.90;;;;;;6132812;23;20053;-84
2022/12/19 06:43:17;;;;;;;80.85;29.52;;;3.00;99.90;;;;;;6131936;23;20092;-83
2022/12/19 06:45:43;;;;;;;73.15;27.25;;;3.10;99.90;;;;;;6106761;23;20017;-80
2022/12/19 06:48:08;;;;;;;74.63;28.25;;;3.10;99.90;;;;;;6158147;23;20485;-84
2022/12/19 06:50:34;;;;;;;82.88;29.83;;;3.00;99.90;;;;;;6157857;23;20014;-83
2022/12/19 06:53:00;;;;;;;79.82;28.88;;;3.10;99.90;;;;;;6157249;23;20010;-81
2022/12/19 06:55:26;;;;;;;74.90;28.83;;;3.20;99.90;;;;;;6158772;23;20020;-81
2022/12/19 06:57:52;;;;;;;75.50;28.15;;;3.20;99.90;;;;;;6108165;23;20366;-83
2022/12/19 07:00:19;;;;;;;68.95;23.50;;;3.20;99.90;;;;;;6159150;23;20084;-83
2022/12/19 07:02:48;;;;;;;72.47;26.17;;;3.30;99.90;;;;;;6133241;23;20021;-82
2022/12/19 07:05:14;;;;;;;71.80;26.67;;;3.30;99.90;;;;;;6158563;23;20018;-82
2022/12/19 07:07:40;;;;;;;73.03;27.27;;;3.30;99.90;;;;;;6132123;23;20018;-80
2022/12/19 07:10:07;;;;;;;64.35;24.77;;;3.40;99.90;;;;;;6158207;23;20013;-82
2022/12/19 07:12:34;;;;;;;70.60;26.15;;;3.40;99.90;;;;;;6132720;23;20088;-83
2022/12/19 07:15:04;;;;;;;76.50;27.13;;;3.40;99.90;;;;;;6159429;23;20006;-82
2022/12/19 07:17:30;;;;;;;70.45;26.85;;;3.40;99.90;;;;;;6159288;23;20014;-82
2022/12/19 07:19:57;;;;;;;63.65;24.60;;;3.50;99.90;;;;;;6130833;23;20390;-78
2022/12/19 07:22:28;;;;;;;70.10;27.02;;;3.50;99.90;;;;;;6130301;23;20052;-83
2022/12/19 07:24:55;;;;;;;72.68;25.08;;;3.50;99.90;;;;;;6131530;23;20024;-80
2022/12/19 07:27:21;;;;;;;78.05;26.65;;;3.50;99.90;;;;;;6158300;23;20335;-81
2022/12/19 07:29:47;;;;;;;80.10;28.05;;;3.60;99.90;;;;;;6132344;23;20014;-83
2022/12/19 07:32:13;;;;;;;69.82;27.02;;;3.60;99.90;;;;;;6157531;23;20017;-84
2022/12/19 07:34:39;;;;;;;63.35;26.85;;;3.60;99.90;;;;;;6131328;23;20017;-80
2022/12/19 07:37:05;;;;;;;63.67;26.70;;;3.60;99.90;;;;;;6131797;23;20043;-81
2022/12/19 07:39:31;;;;;;;77.30;27.15;;;3.70;99.90;;;;;;6131790;23;20061;-84
2022/12/19 07:41:57;;;;;;;74.95;26.85;;;3.80;99.90;;;;;;6157960;23;20039;-83
2022/12/19 07:44:22;;;;;;;73.88;28.20;;;3.80;99.90;;;;;;6158090;23;20071;-83
2022/12/19 07:46:48;;;;;;;75.05;28.55;;;3.80;99.90;;;;;;6157033;23;20045;-84
2022/12/19 07:49:13;;;;;;;83.07;27.15;;;3.80;99.90;;;;;;6157180;23;20476;-82
2022/12/19 07:51:39;;;;;;;70.63;26.98;;;3.80;99.90;;;;;;6157536;23;20023;-83
2022/12/19 07:54:05;;;;;;;92.57;30.75;;;3.80;99.90;;;;;;6157573;23;20420;-83
2022/12/19 07:56:30;;;;;;;71.15;27.02;;;3.80;99.90;;;;;;6156506;23;20458;-84
2022/12/19 07:58:56;;;;;;;67.13;23.83;;;3.80;99.90;;;;;;6156882;23;20039;-84
2022/12/19 08:01:22;;;;;;;82.18;28.58;;;3.90;99.90;;;;;;6156536;23;20431;-84
2022/12/19 08:03:47;;;;;;;72.13;26.35;;;3.90;99.90;;;;;;6130497;23;20020;-83
2022/12/19 08:06:13;;;;;;;69.70;26.58;;;3.90;99.90;;;;;;6156473;23;20067;-82
2022/12/19 08:08:39;;;;;;;62.45;23.30;;;4.00;99.90;;;;;;6130667;23;20378;-82
2022/12/19 08:11:13;;;;;;;57.40;24.85;;;4.10;99.90;;;;;;6156435;23;20536;-84
2022/12/19 08:13:40;;;;;;;61.13;24.67;;;4.10;99.90;;;;;;6105872;23;20021;-83
2022/12/19 08:16:06;;;;;;;54.88;24.17;;;4.20;99.90;;;;;;6156441;23;20014;-83
2022/12/19 08:18:33;;;;;;;54.33;24.50;;;4.40;99.90;;;;;;6157026;23;20017;-81
2022/12/19 08:20:59;;;;;;;57.40;22.77;;;4.40;99.90;;;;;;6158205;23;20014;-84
2022/12/19 08:23:25;;;;;;;67.55;28.17;;;4.50;99.90;;;;;;6130382;23;20049;-83
2022/12/19 08:26:02;;;;;;;69.20;27.30;;;4.50;99.90;;;;;;6105674;23;20050;-82
2022/12/19 08:28:29;;;;;;;66.53;26.98;;;4.40;99.90;;;;;;6130403;23;20432;-81
2022/12/19 08:30:55;;;;;;;79.20;28.02;;;4.40;99.90;;;;;;6130544;23;20163;-83
2022/12/19 08:33:20;;;;;;;78.82;27.45;;;4.40;99.90;;;;;;6156563;23;20093;-81
2022/12/19 08:35:46;;;;;;;85.13;28.27;;;4.30;99.90;;;;;;6130810;23;20017;-82
2022/12/19 08:38:12;;;;;;;69.57;26.08;;;4.30;99.90;;;;;;6157268;23;20014;-79
2022/12/19 08:40:37;;;;;;;74.85;25.92;;;4.30;99.90;;;;;;6106263;23;20092;-84
2022/12/19 08:43:03;;;;;;;78.30;27.00;;;4.30;99.90;;;;;;6130670;23;20020;-85
2022/12/19 08:45:29;;;;;;;68.85;26.20;;;4.20;99.90;;;;;;6107408;23;20101;-85
2022/12/19 08:47:55;;;;;;;72.40;26.23;;;4.20;99.90;;;;;;6157718;23;20017;-83
2022/12/19 08:50:21;;;;;;;68.47;23.73;;;4.20;99.90;;;;;;6131820;23;20359;-85
2022/12/19 08:52:47;;;;;;;70.88;27.60;;;4.30;99.90;;;;;;6157543;23;20049;-83
2022/12/19 08:55:13;;;;;;;67.78;25.55;;;4.30;99.90;;;;;;6131463;23;20054;-82
2022/12/19 08:57:39;;;;;;;73.20;27.02;;;4.30;99.90;;;;;;6131744;23;20013;-85
2022/12/19 09:00:05;;;;;;;72.78;27.25;;;4.40;99.90;;;;;;6131667;23;20044;-83
2022/12/19 09:02:31;;;;;;;77.35;27.63;;;4.40;99.90;;;;;;6157002;23;20010;-84
2022/12/19 09:04:56;;;;;;;63.55;24.85;;;4.40;99.90;;;;;;6157552;23;20016;-85
2022/12/19 09:07:22;;;;;;;76.07;28.33;;;4.40;99.90;;;;;;6131632;23;20013;-84
2022/12/19 09:09:48;;;;;;;78.18;27.67;;;4.40;99.90;;;;;;6159241;23;20020;-84
2022/12/19 09:12:16;;;;;;;72.15;27.08;;;4.50;99.90;;;;;;6159510;23;20070;-86
2022/12/19 09:14:43;;;;;;;69.60;28.00;;;4.60;99.90;;;;;;6132814;23;20018;-81
2022/12/19 09:17:08;;;;;;;70.32;26.88;;;4.60;99.90;;;;;;6159526;23;20470;-86
2022/12/19 09:19:34;;;;;;;85.45;30.25;;;4.60;99.90;;;;;;6132870;23;20049;-84
2022/12/19 09:22:00;;;;;;;70.85;26.75;;;4.60;99.90;;;;;;6132818;23;20036;-83
2022/12/19 09:24:25;;;;;;;75.43;28.30;;;4.60;99.90;;;;;;6132530;23;20013;-82
2022/12/19 09:26:51;;;;;;;82.15;28.23;;;4.70;99.90;;;;;;6158609;23;20014;-83
2022/12/19 09:29:17;;;;;;;73.25;29.30;;;4.70;99.90;;;;;;6132369;23;20141;-83
2022/12/19 09:31:42;;;;;;;68.97;27.27;;;4.70;99.90;;;;;;6131979;23;20076;-84
2022/12/19 09:34:08;;;;;;;71.45;27.48;;;4.70;99.90;;;;;;6159501;23;20020;-85
2022/12/19 09:36:33;;;;;;;76.15;29.50;;;4.80;99.90;;;;;;6132480;23;20427;-84
2022/12/19 09:38:59;;;;;;;67.53;25.88;;;4.90;99.90;;;;;;6158508;23;20037;-84
2022/12/19 09:41:45;;;;;;;60.80;26.92;;;4.80;99.90;;;;;;6158791;23;20047;-84
2022/12/19 09:44:17;;;;;;;60.63;25.90;;;5.00;99.90;;;;;;6159408;23;20014;-85
2022/12/19 09:46:54;;;;;;;66.63;26.88;;;5.00;99.90;;;;;;6107888;23;20018;-84
2022/12/19 09:49:44;;;;;;;68.50;27.60;;;5.10;99.90;;;;;;6132469;23;20025;-85
2022/12/19 09:52:19;;;;;;;67.65;25.77;;;5.10;99.90;;;;;;6132420;23;20021;-83
2022/12/19 09:54:51;;;;;;;69.75;27.67;;;5.20;99.90;;;;;;6158292;23;20013;-84
2022/12/19 09:57:40;;;;;;;71.25;27.63;;;5.20;99.90;;;;;;6158328;23;20072;-82
2022/12/19 10:00:11;;;;;;;52.40;24.85;;;5.30;99.90;;;;;;6133465;23;20009;-84
2022/12/19 10:02:43;;;;;;;49.75;22.63;;;5.50;99.90;;;;;;6132058;23;20093;-83
2022/12/19 10:05:15;;;;;;;58.95;25.67;;;5.60;99.90;;;;;;6132668;23;20017;-84
2022/12/19 10:07:43;;;;;;;54.55;24.23;;;5.70;99.90;;;;;;6132318;23;20028;-83
2022/12/19 10:10:16;;;;;;;50.80;25.20;;;5.80;99.90;;;;;;6132769;23;20049;-84
2022/12/19 10:13:24;;;;;;;46.40;21.88;;;5.90;99.90;;;;;;6107961;23;20107;-83
2022/12/19 10:15:59;;;;;;;43.58;21.90;;;6.10;99.90;;;;;;6157970;23;20053;-84
2022/12/19 10:18:30;;;;;;;42.05;21.52;;;6.30;99.90;;;;;;6159319;23;20018;-83
2022/12/19 10:21:11;;;;;;;43.65;20.85;;;6.50;99.90;;;;;;6159106;23;20020;-81
2022/12/19 10:24:20;;;;;;;42.80;20.80;;;6.70;99.90;;;;;;6134490;23;20432;-84
2022/12/19 10:26:52;;;;;;;35.97;20.15;;;6.80;99.90;;;;;;6118676;23;20017;-85
2022/12/19 10:29:56;;;;;;;37.63;20.73;;;6.90;99.90;;;;;;6179530;23;20043;-83
2022/12/19 10:32:58;;;;;;;34.78;18.58;;;7.00;99.90;;;;;;6120564;23;20454;-85
2022/12/19 10:35:33;;;;;;;33.85;18.20;;;7.10;99.90;;;;;;6134800;23;20013;-84
2022/12/19 10:38:14;;;;;;;30.90;15.95;;;7.20;99.90;;;;;;6117242;23;20013;-84
2022/12/19 10:40:52;;;;;;;27.55;16.15;;;7.30;99.90;;;;;;6135911;23;20380;-83
2022/12/19 10:43:29;;;;;;;28.75;16.55;;;7.30;99.90;;;;;;6135878;23;20009;-83
2022/12/19 10:46:01;;;;;;;30.55;17.65;;;7.40;99.90;;;;;;6159931;23;20017;-82
2022/12/19 10:48:27;;;;;;;27.70;16.48;;;7.40;99.90;;;;;;6159137;23;20013;-82
2022/12/19 10:50:53;;;;;;;27.13;15.77;;;7.40;99.90;;;;;;6158390;23;20017;-83
2022/12/19 10:53:27;;;;;;;28.60;16.10;;;7.50;99.90;;;;;;6159213;23;20009;-85
2022/12/19 10:55:54;;;;;;;24.67;14.93;;;7.50;99.90;;;;;;6132653;23;20128;-85
2022/12/19 10:58:34;;;;;;;22.88;13.75;;;7.50;99.90;;;;;;6133289;23;20025;-86
2022/12/19 11:01:38;;;;;;;27.77;14.85;;;7.50;99.90;;;;;;6158387;23;20010;-83
2022/12/19 11:04:28;;;;;;;24.20;15.32;;;7.60;99.90;;;;;;6133276;23;20432;-83
2022/12/19 11:07:05;;;;;;;25.30;15.63;;;7.60;99.90;;;;;;6131910;23;20044;-84
2022/12/19 11:09:38;;;;;;;24.30;14.20;;;7.60;99.90;;;;;;6158581;23;20013;-82
2022/12/19 11:12:06;;;;;;;22.77;14.05;;;7.60;99.90;;;;;;6158502;23;20013;-83
2022/12/19 11:14:35;;;;;;;21.88;13.05;;;7.70;99.90;;;;;;6133281;23;20020;-83
2022/12/19 11:17:01;;;;;;;20.38;12.77;;;7.70;99.90;;;;;;6132118;23;20514;-83
2022/12/19 11:19:38;;;;;;;21.33;11.70;;;7.80;99.90;;;;;;6158852;23;20009;-84
2022/12/19 11:22:05;;;;;;;21.65;14.02;;;7.80;99.90;;;;;;6132447;23;20029;-82
2022/12/19 11:24:36;;;;;;;23.70;12.88;;;7.90;99.90;;;;;;6158235;23;20025;-83
2022/12/19 11:27:02;;;;;;;23.88;14.05;;;7.90;99.90;;;;;;6157921;23;20041;-82
2022/12/19 11:29:47;;;;;;;23.92;13.75;;;7.80;99.90;;;;;;6158435;23;20383;-82
2022/12/19 11:32:31;;;;;;;22.33;13.80;;;7.90;99.90;;;;;;6132239;23;20014;-83
2022/12/19 11:35:03;;;;;;;22.83;13.57;;;7.90;99.90;;;;;;6158529;23;20056;-83
2022/12/19 11:37:38;;;;;;;25.58;14.45;;;7.90;99.90;;;;;;6158360;23;20109;-86
2022/12/19 11:40:14;;;;;;;24.75;15.10;;;7.90;99.90;;;;;;6132257;23;20028;-84
2022/12/19 11:42:53;;;;;;;29.17;16.08;;;7.90;99.90;;;;;;6157796;23;20040;-83
2022/12/19 11:45:28;;;;;;;24.30;13.88;;;7.80;99.90;;;;;;6131893;23;20017;-83
2022/12/19 11:48:00;;;;;;;22.63;14.10;;;7.90;99.90;;;;;;6158144;23;20014;-83
2022/12/19 11:50:30;;;;;;;25.17;13.32;;;7.90;99.90;;;;;;6107319;23;20017;-82
2022/12/19 11:52:55;;;;;;;20.25;11.65;;;7.90;99.90;;;;;;6132670;23;20013;-84
2022/12/19 11:55:31;;;;;;;19.75;10.57;;;7.90;99.90;;;;;;6131499;23;20339;-82
2022/12/19 11:57:57;;;;;;;;;;;7.90;99.90;;;;;;6132289;23;20021;-83
2022/12/19 12:00:23;;;;;;;;;;;8.00;99.90;;;;;;6158350;23;19913;-83
2022/12/19 12:03:25;;;;;;;21.27;11.65;;;8.00;99.90;;;;;;6132077;23;19952;-85
2022/12/19 12:05:54;;;;;;;20.92;12.60;;;8.00;99.90;;;;;;6131688;23;20470;-86
2022/12/19 12:08:37;;;;;;;19.08;11.18;;;8.00;99.90;;;;;;6158590;23;20064;-84
2022/12/19 12:11:24;;;;;;;19.33;10.73;;;8.00;99.90;;;;;;6131900;23;20081;-85
2022/12/19 12:14:11;;;;;;;19.02;11.30;;;8.00;99.90;;;;;;6108236;23;20017;-88
2022/12/19 12:17:27;;;;;;;;;;;;;;;;;;;;;
2022/12/19 12:20:12;;;;;;;20.58;11.77;;;8.00;99.90;;;;;;6133016;23;20044;-86
2022/12/19 12:22:47;;;;;;;22.65;12.15;;;8.00;99.90;;;;;;6157986;23;20080;-83
2022/12/19 12:25:19;;;;;;;21.02;11.68;;;8.00;99.90;;;;;;6107635;23;20439;-85
2022/12/19 12:28:11;;;;;;;18.05;11.30;;;8.00;99.90;;;;;;6133491;23;20045;-86
2022/12/19 12:30:55;;;;;;;18.98;11.63;;;8.00;99.90;;;;;;6158672;23;20010;-85
2022/12/19 12:33:43;;;;;;;19.15;10.90;;;8.00;99.90;;;;;;6157904;23;20010;-81
2022/12/19 12:36:20;;;;;;;22.40;12.00;;;8.10;99.90;;;;;;6132546;23;20030;-84
2022/12/19 12:39:17;;;;;;;18.15;11.05;;;8.10;99.90;;;;;;6132032;23;20048;-87
2022/12/19 12:42:03;;;;;;;18.58;11.55;;;8.10;99.90;;;;;;6131622;23;20021;-84
2022/12/19 12:44:40;;;;;;;15.35;10.15;;;8.10;99.90;;;;;;6134577;23;20084;-87
2022/12/19 12:47:23;;;;;;;20.73;11.15;;;8.10;99.90;;;;;;6110563;23;20021;-86
2022/12/19 12:50:04;;;;;;;17.48;10.68;;;8.10;99.90;;;;;;6134503;23;20014;-86
2022/12/19 12:52:33;;;;;;;19.60;11.93;;;8.20;99.90;;;;;;6108728;23;20423;-83
2022/12/19 12:54:59;;;;;;;19.65;11.45;;;8.10;99.90;;;;;;6160339;23;20010;-84
2022/12/19 12:57:28;;;;;;;20.90;12.18;;;8.20;99.90;;;;;;6134770;23;20017;-86
2022/12/19 13:00:27;;;;;;;19.65;11.43;;;8.20;99.90;;;;;;6160277;23;20084;-85
2022/12/19 13:02:58;;;;;;;15.98;11.20;;;8.20;99.90;;;;;;6151199;23;20491;-84
2022/12/19 13:06:01;;;;;;;16.58;9.88;;;8.20;99.90;;;;;;6133504;23;20017;-85
2022/12/19 13:08:33;;;;;;;16.13;11.43;;;8.20;99.90;;;;;;6160129;23;20018;-86
2022/12/19 13:12:58;;;;;;;20.27;11.55;;;8.20;99.90;;;;;;6135125;23;20439;-85
2022/12/19 13:14:04;;;;;;;18.88;12.48;;;8.30;99.90;;;;;;6160133;23;20024;-86
2022/12/19 13:16:42;;;;;;;20.58;13.27;;;8.20;99.90;;;;;;6133813;23;20022;-84
2022/12/19 13:19:23;;;;;;;20.73;13.20;;;8.30;99.90;;;;;;6134633;23;20065;-87
2022/12/19 13:22:03;;;;;;;21.13;13.57;;;8.30;99.90;;;;;;6133341;23;20013;-84
2022/12/19 13:24:49;;;;;;;24.67;13.50;;;8.30;99.90;;;;;;6133825;23;20071;-84
2022/12/19 13:27:17;;;;;;;22.60;14.52;;;8.30;99.90;;;;;;6133592;23;20304;-84
2022/12/19 13:29:58;;;;;;;23.50;14.35;;;8.20;99.90;;;;;;6160501;23;20036;-84
2022/12/19 13:32:32;;;;;;;22.23;13.77;;;8.20;99.90;;;;;;6159885;23;20073;-85
2022/12/19 13:34:59;;;;;;;19.88;13.35;;;8.20;99.90;;;;;;6159128;23;20017;-86
2022/12/19 13:37:31;;;;;;;19.02;12.07;;;8.20;99.90;;;;;;6133825;23;20032;-87
2022/12/19 13:39:56;;;;;;;22.33;12.45;;;8.20;99.90;;;;;;6160096;23;20006;-86
2022/12/19 13:45:31;;;;;;;18.75;11.68;;;8.30;99.90;;;;;;6160500;23;20021;-87
2022/12/19 13:48:01;;;;;;;18.88;11.18;;;8.30;99.90;;;;;;6133894;23;20344;-86
2022/12/19 13:50:37;;;;;;;16.40;10.55;;;8.30;99.90;;;;;;6109282;23;20453;-84
2022/12/19 13:53:08;;;;;;;;;;;8.30;99.90;;;;;;6134452;23;20455;-85
2022/12/19 13:55:38;;;;;;;17.65;11.85;;;8.30;99.90;;;;;;6133400;23;19918;-86
2022/12/19 13:58:04;;;;;;;17.40;10.30;;;8.40;99.90;;;;;;6160265;23;20088;-86
2022/12/19 14:00:41;;;;;;;15.45;9.88;;;8.30;99.90;;;;;;6160037;23;20010;-85
2022/12/19 14:03:16;;;;;;;15.77;9.30;;;8.40;99.90;;;;;;6160809;23;20422;-87
2022/12/19 14:05:41;;;;;;;16.60;10.47;;;8.40;99.90;;;;;;6134197;23;20052;-86
2022/12/19 14:08:08;;;;;;;16.48;10.57;;;8.40;99.90;;;;;;6108585;23;20371;-84
2022/12/19 14:10:39;;;;;;;15.68;10.68;;;8.40;99.90;;;;;;6159571;23;20060;-83
2022/12/19 14:15:55;;;;;;;16.45;9.18;;;8.50;99.90;;;;;;6133200;23;20072;-89
2022/12/19 14:18:32;;;;;;;15.95;9.02;;;8.50;99.90;;;;;;6160539;23;20014;-87
2022/12/19 14:21:29;;;;;;;15.25;9.07;;;8.50;99.90;;;;;;6159710;23;20067;-86
2022/12/19 14:24:14;;;;;;;15.73;8.27;;;8.50;99.90;;;;;;6088025;23;20020;-83
2022/12/19 14:26:41;;;;;;;12.23;8.00;;;8.60;99.90;;;;;;6163065;23;20080;-87
2022/12/19 14:29:25;;;;;;;15.60;7.18;;;8.60;99.90;;;;;;6135297;23;20010;-84
2022/12/19 14:31:53;;;;;;;12.27;6.97;;;8.60;99.90;;;;;;6159060;23;20084;-86
2022/12/19 14:34:23;;;;;;;13.35;7.68;;;8.60;99.90;;;;;;6132895;23;20017;-85
2022/12/19 14:36:52;;;;;;;14.52;8.18;;;8.60;99.90;;;;;;6133697;23;20018;-84
2022/12/19 14:39:20;;;;;;;11.32;7.40;;;8.60;99.90;;;;;;6133083;23;20010;-85
2022/12/19 14:44:52;;;;;;;11.30;6.97;;;8.50;99.90;;;;;;6159533;23;20025;-87
2022/12/19 14:47:23;;;;;;;10.20;6.82;;;8.50;99.90;;;;;;6134243;23;20013;-87
2022/12/19 14:49:50;;;;;;;10.93;6.72;;;8.50;99.90;;;;;;6132252;23;20020;-84
2022/12/19 14:52:36;;;;;;;11.35;6.82;;;8.50;99.90;;;;;;6157659;23;20328;-87
2022/12/19 14:55:28;;;;;;;13.23;7.15;;;8.50;99.90;;;;;;6108589;23;20010;-85
2022/12/19 14:57:54;;;;;;;11.77;7.10;;;8.60;99.90;;;;;;6132866;23;20020;-84
2022/12/19 15:00:22;;;;;;;10.15;6.30;;;8.60;99.90;;;;;;6158857;23;20009;-84
2022/12/19 15:02:47;;;;;;;12.90;7.22;;;8.50;99.90;;;;;;6158981;23;20375;-84
2022/12/19 15:05:26;;;;;;;11.95;7.03;;;8.50;99.90;;;;;;6158670;23;20061;-84
2022/12/19 15:07:55;;;;;;;11.93;6.55;;;8.50;99.90;;;;;;6136429;23;20085;-84
2022/12/19 15:10:24;;;;;;;12.57;6.90;;;8.50;99.90;;;;;;6165555;23;20014;-84
2022/12/19 15:15:53;;;;;;;13.70;6.70;;;8.50;99.90;;;;;;6144263;23;20086;-83
2022/12/19 15:18:32;;;;;;;12.55;6.65;;;8.50;99.90;;;;;;6160896;23;20014;-86
2022/12/19 15:20:59;;;;;;;10.05;6.07;;;8.50;99.90;;;;;;6160730;23;20009;-84
2022/12/19 15:23:26;;;;;;;10.85;6.50;;;8.50;99.90;;;;;;6159051;23;20020;-85
2022/12/19 15:25:53;;;;;;;13.27;6.47;;;8.60;99.90;;;;;;6132923;23;20014;-85
2022/12/19 15:28:22;;;;;;;10.80;6.10;;;8.60;99.90;;;;;;6158365;23;20436;-86
2022/12/19 15:30:56;;;;;;;11.95;6.60;;;8.50;99.90;;;;;;6132167;23;20044;-86
2022/12/19 15:33:22;;;;;;;12.85;6.85;;;8.50;99.90;;;;;;6133201;23;20428;-86
2022/12/19 15:35:48;;;;;;;11.52;7.03;;;8.50;99.90;;;;;;6132269;23;20060;-86
2022/12/19 15:38:13;;;;;;;12.82;7.10;;;8.50;99.90;;;;;;6131860;23;20092;-85
2022/12/19 15:40:41;;;;;;;13.88;7.35;;;8.40;99.90;;;;;;6132298;23;20009;-87
2022/12/19 15:43:18;;;;;;;13.88;7.75;;;8.40;99.90;;;;;;6132739;23;20020;-86
2022/12/19 15:45:44;;;;;;;12.32;6.55;;;8.40;99.90;;;;;;6159057;23;20308;-86
2022/12/19 15:48:16;;;;;;;14.18;7.50;;;8.30;99.90;;;;;;6134634;23;20009;-83
2022/12/19 15:50:43;;;;;;;13.93;8.07;;;8.30;99.90;;;;;;6133774;23;20071;-83
2022/12/19 15:53:27;;;;;;;13.43;8.35;;;8.30;99.90;;;;;;6158409;23;20013;-83
2022/12/19 15:55:55;;;;;;;13.88;8.98;;;8.30;99.90;;;;;;6108158;23;20068;-88
2022/12/19 15:58:21;;;;;;;16.70;8.63;;;8.20;99.90;;;;;;6133422;23;20014;-81
2022/12/19 16:00:53;;;;;;;13.30;8.68;;;8.20;99.90;;;;;;6135190;23;20060;-85
2022/12/19 16:03:19;;;;;;;19.20;9.77;;;8.20;99.90;;;;;;6133156;23;20006;-83
2022/12/19 16:05:46;;;;;;;14.75;9.80;;;8.10;99.90;;;;;;6132894;23;20041;-86
2022/12/19 16:08:13;;;;;;;20.05;9.90;;;8.10;99.90;;;;;;6132479;23;20044;-85
2022/12/19 16:10:40;;;;;;;20.25;10.23;;;8.10;99.90;;;;;;6131923;23;20017;-84
2022/12/19 16:13:06;;;;;;;15.98;9.93;;;8.10;99.90;;;;;;6132822;23;20056;-87
2022/12/19 16:15:33;;;;;;;18.60;10.32;;;8.10;99.90;;;;;;6132988;23;20340;-87
2022/12/19 16:18:01;;;;;;;18.58;10.40;;;8.10;99.90;;;;;;6159789;23;20014;-91
2022/12/19 16:20:34;;;;;;;14.90;10.00;;;8.00;99.90;;;;;;6159051;23;20017;-84
2022/12/19 16:23:00;;;;;;;21.42;10.18;;;8.10;99.90;;;;;;6158745;23;20499;-85
2022/12/19 16:25:36;;;;;;;16.35;10.45;;;8.00;99.90;;;;;;6158027;23;20049;-88
2022/12/19 16:28:04;;;;;;;17.83;11.43;;;8.00;99.90;;;;;;6131415;23;20018;-87
2022/12/19 16:30:32;;;;;;;15.75;9.70;;;8.00;99.90;;;;;;6131502;23;20057;-88
2022/12/19 16:32:58;;;;;;;17.65;9.57;;;8.00;99.90;;;;;;6133183;23;20045;-85
2022/12/19 16:35:25;;;;;;;18.13;10.18;;;8.00;99.90;;;;;;6132653;23;20459;-87
2022/12/19 16:37:51;;;;;;;16.38;9.85;;;8.00;99.90;;;;;;6158660;23;20021;-88
2022/12/19 16:40:20;;;;;;;17.45;10.07;;;8.10;99.90;;;;;;6108407;23;20012;-85
2022/12/19 16:42:47;;;;;;;16.40;8.73;;;8.10;99.90;;;;;;6133153;23;20486;-88
2022/12/19 16:45:21;;;;;;;14.90;8.65;;;8.00;99.90;;;;;;6132892;23;20021;-85
2022/12/19 16:47:48;;;;;;;18.40;8.98;;;8.10;99.90;;;;;;6132680;23;20017;-88
2022/12/19 16:50:29;;;;;;;14.32;8.10;;;8.10;99.90;;;;;;6133240;23;20448;-83
2022/12/19 16:52:55;;;;;;;15.73;9.15;;;8.00;99.90;;;;;;6132759;23;20440;-86
2022/12/19 16:55:23;;;;;;;16.10;8.95;;;8.00;99.90;;;;;;6132507;23;20016;-85
2022/12/19 16:57:51;;;;;;;15.50;8.98;;;8.00;99.90;;;;;;6158811;23;20018;-89
2022/12/19 17:00:22;;;;;;;13.02;8.70;;;8.00;99.90;;;;;;6132124;23;20428;-89
2022/12/19 17:02:56;;;;;;;12.65;8.65;;;8.00;99.90;;;;;;6158525;23;20045;-87
2022/12/19 17:05:29;;;;;;;15.25;8.80;;;8.10;99.90;;;;;;6108390;23;20014;-85
2022/12/19 17:07:56;;;;;;;16.35;8.32;;;8.10;99.90;;;;;;6131766;23;20069;-87
2022/12/19 17:10:26;;;;;;;12.52;8.18;;;8.10;99.90;;;;;;6158585;23;20351;-81
2022/12/19 17:12:54;;;;;;;13.27;7.20;;;8.10;99.90;;;;;;6156848;23;20446;-81
2022/12/19 17:15:29;;;;;;;13.75;8.00;;;8.10;99.90;;;;;;6131347;23;20024;-87